Time;durP1;ratioP1;P1;durP2;ratioP2;P2;SDS_P1;SDS_P2;PMS_P1;PMS_P2;Temp;Humidity;BMP_temperature;BMP_pressure;BME280_temperature;BME280_humidity;BME280_pressure;Samples;Min_cycle;Max_cycle;Signal;HPM_P1;HPM_P2
2023/04/22 00:01:50;;;;;;;1999.90;999.90;;;8.70;88.60;;;;;;5070428;28;20041;-74
2023/04/22 00:04:15;;;;;;;1999.90;999.90;;;8.60;88.50;;;;;;5048999;28;20119;-75
2023/04/22 00:06:41;;;;;;;1999.90;999.90;;;8.70;88.50;;;;;;5062544;28;20136;-74
2023/04/22 00:09:07;;;;;;;1999.90;999.90;;;8.60;90.10;;;;;;5063593;28;20033;-74
2023/04/22 00:11:32;;;;;;;1999.90;999.90;;;8.50;90.50;;;;;;5069577;28;20082;-74
2023/04/22 00:13:58;;;;;;;1999.90;999.90;;;8.40;90.60;;;;;;5070825;28;20036;-73
2023/04/22 00:16:25;;;;;;;1999.90;999.90;;;8.40;90.60;;;;;;5063633;28;20033;-72
2023/04/22 00:18:50;;;;;;;1999.90;999.90;;;8.40;90.50;;;;;;5065928;28;20483;-72
2023/04/22 00:21:16;;;;;;;1999.90;999.90;;;8.40;90.70;;;;;;5053654;28;20041;-71
2023/04/22 00:23:44;;;;;;;1999.90;999.90;;;8.30;90.50;;;;;;5064046;28;20056;-72
2023/04/22 00:26:22;;;;;;;1999.90;999.90;;;8.40;90.50;;;;;;5071009;28;20032;-74
2023/04/22 00:28:49;;;;;;;1999.90;999.90;;;8.30;90.80;;;;;;5048693;28;20090;-74
2023/04/22 00:31:14;;;;;;;1999.90;999.90;;;8.20;91.00;;;;;;5068968;28;20040;-74
2023/04/22 00:33:40;;;;;;;1999.90;999.90;;;8.30;90.90;;;;;;5055841;28;20040;-72
2023/04/22 00:36:06;;;;;;;1999.90;999.90;;;8.30;91.30;;;;;;5050436;28;20104;-72
2023/04/22 00:38:32;;;;;;;1999.90;999.90;;;8.30;91.30;;;;;;5067559;28;20028;-72
2023/04/22 00:40:58;;;;;;;1999.90;999.90;;;8.10;91.60;;;;;;5066040;28;20340;-72
2023/04/22 00:43:24;;;;;;;1999.90;999.90;;;8.00;92.10;;;;;;5068363;28;20027;-72
2023/04/22 00:45:49;;;;;;;1999.90;999.90;;;8.00;92.10;;;;;;5064507;28;20036;-73
2023/04/22 00:48:15;;;;;;;1999.90;999.90;;;8.10;92.00;;;;;;5060594;28;20029;-72
2023/04/22 00:50:41;;;;;;;1999.90;999.90;;;8.10;91.70;;;;;;5062945;28;20067;-72
2023/04/22 00:53:07;;;;;;;1999.90;999.90;;;8.10;91.50;;;;;;5065346;28;20109;-73
2023/04/22 00:55:33;;;;;;;1999.90;999.90;;;8.20;91.70;;;;;;5063735;28;20041;-73
2023/04/22 00:58:01;;;;;;;1999.90;999.90;;;8.20;91.60;;;;;;5075723;28;20097;-73
2023/04/22 01:00:27;;;;;;;1999.90;999.90;;;8.20;91.60;;;;;;5042355;28;20039;-73
2023/04/22 01:02:54;;;;;;;1999.90;999.90;;;8.30;91.50;;;;;;5070982;28;20403;-72
2023/04/22 01:05:20;;;;;;;1999.90;999.90;;;8.00;91.80;;;;;;5064696;28;20375;-72
2023/04/22 01:07:46;;;;;;;1999.90;999.90;;;7.80;92.50;;;;;;5054506;28;20029;-72
2023/04/22 01:10:12;;;;;;;1999.90;999.90;;;7.80;92.30;;;;;;5070857;28;20036;-73
2023/04/22 01:12:37;;;;;;;1999.90;999.90;;;7.90;92.30;;;;;;5064247;28;20024;-72
2023/04/22 01:15:04;;;;;;;1999.90;999.90;;;8.00;92.00;;;;;;5051449;28;20028;-73
2023/04/22 01:17:30;;;;;;;1999.90;999.90;;;8.10;91.90;;;;;;5065186;28;20036;-74
2023/04/22 01:19:58;;;;;;;1999.90;999.90;;;8.10;91.80;;;;;;5068513;28;20032;-72
2023/04/22 01:22:28;;;;;;;1999.90;999.90;;;8.00;91.80;;;;;;5069415;28;20133;-72
2023/04/22 01:24:54;;;;;;;;;;;8.10;92.10;;;;;;5070363;28;20033;-72
2023/04/22 01:27:20;;;;;;;1999.90;999.90;;;8.00;92.00;;;;;;5067700;28;19961;-72
2023/04/22 01:29:47;;;;;;;1999.90;999.90;;;8.10;91.90;;;;;;5065922;28;20040;-73
2023/04/22 01:32:12;;;;;;;1999.90;999.90;;;8.00;91.90;;;;;;5057217;28;20039;-72
2023/04/22 01:34:38;;;;;;;1999.90;999.90;;;8.00;92.10;;;;;;5054458;28;20033;-72
2023/04/22 01:37:05;;;;;;;1999.90;999.90;;;8.00;92.20;;;;;;5049000;28;20091;-72
2023/04/22 01:39:32;;;;;;;1999.90;999.90;;;8.10;91.90;;;;;;5066085;28;20059;-72
2023/04/22 01:41:58;;;;;;;1999.90;999.90;;;8.10;92.00;;;;;;5068987;28;20081;-72
2023/04/22 01:44:25;;;;;;;1999.90;999.90;;;8.20;92.30;;;;;;5067216;28;20052;-73
2023/04/22 01:46:51;;;;;;;1999.90;999.90;;;8.20;92.10;;;;;;5067030;28;20072;-72
2023/04/22 01:49:16;;;;;;;1999.90;999.90;;;8.10;92.00;;;;;;5069692;28;20037;-72
2023/04/22 01:51:42;;;;;;;1999.90;999.90;;;8.10;92.10;;;;;;5072580;28;20063;-72
2023/04/22 01:54:09;;;;;;;1999.90;999.90;;;8.00;92.50;;;;;;5072420;28;20367;-73
2023/04/22 01:56:37;;;;;;;1999.90;999.90;;;8.00;92.70;;;;;;5057698;28;20024;-72
2023/04/22 01:59:03;;;;;;;1999.90;999.90;;;7.70;93.20;;;;;;5073320;28;20048;-72
2023/04/22 02:01:29;;;;;;;1999.90;999.90;;;7.80;93.40;;;;;;5059886;28;20061;-72
2023/04/22 02:03:55;;;;;;;1999.90;999.90;;;7.80;93.50;;;;;;5057527;28;20029;-73
2023/04/22 02:06:20;;;;;;;1999.90;999.90;;;7.80;93.40;;;;;;5077334;28;20035;-73
2023/04/22 02:08:46;;;;;;;1999.90;999.90;;;7.90;93.20;;;;;;5051414;28;20033;-73
2023/04/22 02:11:11;;;;;;;1999.90;999.90;;;7.90;93.10;;;;;;5070795;28;20386;-72
2023/04/22 02:13:39;;;;;;;1999.90;999.90;;;8.00;93.00;;;;;;5067612;28;20103;-73
2023/04/22 02:16:05;;;;;;;1999.90;999.90;;;7.90;92.90;;;;;;5067173;28;20497;-72
2023/04/22 02:18:31;;;;;;;1999.90;999.90;;;7.90;93.10;;;;;;5067193;28;20085;-73
2023/04/22 02:20:57;;;;;;;1999.90;999.90;;;7.90;93.00;;;;;;5058061;28;20132;-72
2023/04/22 02:23:23;;;;;;;1999.90;999.90;;;7.70;93.10;;;;;;5058516;28;20052;-72
2023/04/22 02:25:50;;;;;;;1999.90;999.90;;;7.90;93.40;;;;;;5067955;28;20158;-72
2023/04/22 02:28:16;;;;;;;1999.90;999.90;;;7.70;93.20;;;;;;5059252;28;20567;-72
2023/04/22 02:30:41;;;;;;;1999.90;999.90;;;7.70;93.40;;;;;;5068711;28;20044;-72
2023/04/22 02:33:07;;;;;;;1999.90;999.90;;;7.70;93.30;;;;;;5068841;28;20158;-72
2023/04/22 02:35:33;;;;;;;1999.90;999.90;;;7.70;93.40;;;;;;5050238;28;20029;-72
2023/04/22 02:37:58;;;;;;;1999.90;999.90;;;7.60;93.50;;;;;;5063747;28;20462;-72
2023/04/22 02:40:24;;;;;;;1999.90;999.90;;;7.60;93.20;;;;;;5068601;28;20031;-72
2023/04/22 02:42:50;;;;;;;1999.90;999.90;;;7.60;93.00;;;;;;5066429;28;20033;-72
2023/04/22 02:45:16;;;;;;;1999.90;999.90;;;7.60;93.10;;;;;;5074995;28;20108;-72
2023/04/22 02:47:41;;;;;;;1999.90;999.90;;;7.50;93.60;;;;;;5066198;28;20036;-72
2023/04/22 02:50:07;;;;;;;1999.90;999.90;;;7.40;93.80;;;;;;5070011;28;20032;-72
2023/04/22 02:52:33;;;;;;;1999.90;999.90;;;7.40;93.80;;;;;;5057235;28;20029;-72
2023/04/22 02:55:00;;;;;;;1999.90;999.90;;;7.40;93.90;;;;;;5058016;28;20032;-72
2023/04/22 02:57:25;;;;;;;1999.90;999.90;;;7.30;93.80;;;;;;5052876;28;20839;-72
2023/04/22 02:59:52;;;;;;;1999.90;999.90;;;7.20;94.00;;;;;;5059187;28;20065;-73
2023/04/22 03:02:17;;;;;;;1999.90;999.90;;;7.20;94.20;;;;;;5040903;28;20048;-73
2023/04/22 03:04:43;;;;;;;1999.90;999.90;;;7.20;94.20;;;;;;5064310;28;20044;-73
2023/04/22 03:07:09;;;;;;;1999.90;999.90;;;7.10;94.20;;;;;;5068401;28;20075;-73
2023/04/22 03:09:35;;;;;;;1999.90;999.90;;;7.00;94.10;;;;;;5072478;28;20024;-73
2023/04/22 03:12:01;;;;;;;1999.90;999.90;;;7.00;94.10;;;;;;5062782;28;20108;-73
2023/04/22 03:14:27;;;;;;;1999.90;999.90;;;7.00;94.50;;;;;;5062215;28;20032;-72
2023/04/22 03:16:54;;;;;;;1999.90;999.90;;;6.90;94.70;;;;;;5068102;28;20043;-73
2023/04/22 03:19:19;;;;;;;1999.90;999.90;;;6.80;94.70;;;;;;5065805;28;20035;-72
2023/04/22 03:21:45;;;;;;;1999.90;999.90;;;6.70;94.80;;;;;;5051793;28;20040;-73
2023/04/22 03:24:11;;;;;;;1999.90;999.90;;;6.70;95.10;;;;;;5068654;28;20062;-73
2023/04/22 03:26:37;;;;;;;1999.90;999.90;;;6.70;95.10;;;;;;5065403;28;20033;-72
2023/04/22 03:29:02;;;;;;;1999.90;999.90;;;6.60;95.10;;;;;;5068002;28;20033;-73
2023/04/22 03:31:28;;;;;;;1999.90;999.90;;;6.60;95.40;;;;;;5067784;28;20025;-72
2023/04/22 03:33:53;;;;;;;1999.90;999.90;;;6.50;95.50;;;;;;5057956;28;20056;-73
2023/04/22 03:36:20;;;;;;;1999.90;999.90;;;6.50;95.50;;;;;;5045949;28;20465;-73
2023/04/22 03:38:45;;;;;;;1999.90;999.90;;;6.50;95.60;;;;;;5065401;28;20033;-72
2023/04/22 03:41:12;;;;;;;1999.90;999.90;;;6.60;95.70;;;;;;5051826;28;20564;-72
2023/04/22 03:43:37;;;;;;;1999.90;999.90;;;6.50;95.40;;;;;;5057360;28;20413;-72
2023/04/22 03:46:03;;;;;;;1999.90;999.90;;;6.50;95.50;;;;;;5055479;28;20032;-73
2023/04/22 03:48:33;;;;;;;1999.90;999.90;;;6.40;95.60;;;;;;5072115;28;20047;-73
2023/04/22 03:50:59;;;;;;;1999.90;999.90;;;6.30;95.60;;;;;;5065063;28;20075;-72
2023/04/22 03:53:25;;;;;;;1999.90;999.90;;;6.30;95.70;;;;;;5052421;28;20059;-73
2023/04/22 03:55:50;;;;;;;1999.90;999.90;;;6.30;96.10;;;;;;5070501;28;20032;-74
2023/04/22 03:58:16;;;;;;;1999.90;999.90;;;6.30;96.00;;;;;;5066195;28;20040;-72
2023/04/22 04:00:42;;;;;;;1999.90;999.90;;;6.20;95.90;;;;;;5055314;28;20044;-73
2023/04/22 04:03:07;;;;;;;1999.90;999.90;;;6.20;95.80;;;;;;5054542;28;20025;-74
2023/04/22 04:05:33;;;;;;;1999.90;999.90;;;6.20;96.10;;;;;;5059384;28;20044;-74
2023/04/22 04:07:59;;;;;;;1999.90;999.90;;;6.20;96.10;;;;;;5060301;28;20068;-73
2023/04/22 04:10:24;;;;;;;1999.90;999.90;;;6.20;96.20;;;;;;5070233;28;20033;-73
2023/04/22 04:12:50;;;;;;;1999.90;999.90;;;6.10;96.00;;;;;;5055744;28;20036;-73
2023/04/22 04:15:18;;;;;;;1999.90;999.90;;;6.00;96.00;;;;;;5061738;28;20029;-73
2023/04/22 04:17:44;;;;;;;1999.90;999.90;;;6.00;96.20;;;;;;5063912;28;20103;-73
2023/04/22 04:20:11;;;;;;;1999.90;999.90;;;6.00;95.80;;;;;;5034447;28;20037;-73
2023/04/22 04:22:37;;;;;;;1999.90;999.90;;;6.00;95.80;;;;;;5069181;28;20032;-73
2023/04/22 04:25:03;;;;;;;1999.90;999.90;;;5.90;95.80;;;;;;5050545;28;20033;-73
2023/04/22 04:27:29;;;;;;;1999.90;999.90;;;5.90;96.00;;;;;;5069165;28;20040;-73
2023/04/22 04:29:55;;;;;;;1999.90;999.90;;;5.80;96.30;;;;;;5055059;28;20041;-73
2023/04/22 04:32:22;;;;;;;1999.90;999.90;;;5.80;96.20;;;;;;5078039;28;20029;-73
2023/04/22 04:34:48;;;;;;;1999.90;999.90;;;5.80;96.20;;;;;;5071175;28;20024;-73
2023/04/22 04:37:15;;;;;;;1999.90;999.90;;;5.80;96.30;;;;;;5055620;28;20382;-74
2023/04/22 04:39:42;;;;;;;1999.90;999.90;;;5.80;96.40;;;;;;5072258;28;20025;-74
2023/04/22 04:42:08;;;;;;;1999.90;999.90;;;5.80;96.30;;;;;;5070139;28;20143;-73
2023/04/22 04:44:34;;;;;;;1999.90;999.90;;;5.90;96.40;;;;;;5032402;28;20048;-74
2023/04/22 04:47:02;;;;;;;1999.90;999.90;;;5.90;96.20;;;;;;5066507;28;20024;-73
2023/04/22 04:49:29;;;;;;;1999.90;999.90;;;5.90;96.00;;;;;;5068948;28;20028;-74
2023/04/22 04:51:56;;;;;;;1999.90;999.90;;;6.00;96.00;;;;;;5067810;28;20081;-73
2023/04/22 04:54:22;;;;;;;1999.90;999.90;;;6.00;95.90;;;;;;5046383;28;20024;-74
2023/04/22 04:56:47;;;;;;;1999.90;999.90;;;6.10;95.80;;;;;;5062925;28;20047;-74
2023/04/22 04:59:13;;;;;;;1999.90;999.90;;;6.10;95.70;;;;;;5067741;28;20044;-74
2023/04/22 05:01:39;;;;;;;1999.90;999.90;;;6.30;95.70;;;;;;5062549;28;20106;-73
2023/04/22 05:04:05;;;;;;;1999.90;999.90;;;6.30;95.50;;;;;;5059632;28;20690;-73
2023/04/22 05:06:31;;;;;;;1999.90;999.90;;;6.30;95.50;;;;;;5070331;28;20053;-74
2023/04/22 05:08:57;;;;;;;1999.90;999.90;;;6.40;95.40;;;;;;5068465;28;20055;-74
2023/04/22 05:11:23;;;;;;;1999.90;999.90;;;6.40;95.50;;;;;;5070807;28;20220;-73
2023/04/22 05:13:49;;;;;;;1999.90;999.90;;;6.50;95.60;;;;;;5068429;28;20505;-73
2023/04/22 05:16:14;;;;;;;1999.90;999.90;;;6.60;95.40;;;;;;5063593;28;20051;-73
2023/04/22 05:18:40;;;;;;;1999.90;999.90;;;6.60;95.20;;;;;;5051642;28;20520;-72
2023/04/22 05:21:06;;;;;;;1999.90;999.90;;;6.90;95.00;;;;;;5071048;28;20468;-73
2023/04/22 05:23:31;;;;;;;1999.90;999.90;;;7.10;94.60;;;;;;5054574;28;20052;-74
2023/04/22 05:25:57;;;;;;;1999.90;999.90;;;7.20;94.80;;;;;;5071849;28;20482;-73
2023/04/22 05:28:23;;;;;;;1999.90;999.90;;;7.30;94.60;;;;;;5070445;28;20055;-73
2023/04/22 05:30:49;;;;;;;1999.90;999.90;;;7.50;94.60;;;;;;5072448;28;20064;-73
2023/04/22 05:33:15;;;;;;;1999.90;999.90;;;7.60;94.10;;;;;;5070928;28;20542;-72
2023/04/22 05:35:40;;;;;;;1999.90;999.90;;;7.80;93.90;;;;;;5071470;28;20032;-73
2023/04/22 05:38:06;;;;;;;1999.90;999.90;;;8.00;94.10;;;;;;5068325;28;20035;-73
2023/04/22 05:40:32;;;;;;;1999.90;999.90;;;8.20;93.80;;;;;;5071999;28;20033;-73
2023/04/22 05:42:58;;;;;;;1999.90;999.90;;;8.30;93.40;;;;;;5057984;28;20037;-73
2023/04/22 05:45:23;;;;;;;1999.90;999.90;;;8.50;93.00;;;;;;5065178;28;20040;-73
2023/04/22 05:47:49;;;;;;;1999.90;999.90;;;8.60;92.40;;;;;;5066372;28;20036;-73
2023/04/22 05:50:15;;;;;;;1999.90;999.90;;;8.80;92.50;;;;;;5038010;28;20039;-73
2023/04/22 05:52:40;;;;;;;1999.90;999.90;;;9.10;92.10;;;;;;5064909;28;20037;-73
2023/04/22 05:55:06;;;;;;;1999.90;999.90;;;9.20;92.00;;;;;;5070866;28;20033;-74
2023/04/22 05:57:32;;;;;;;1999.90;999.90;;;9.40;91.90;;;;;;5059696;28;20037;-74
2023/04/22 05:59:59;;;;;;;1999.90;999.90;;;9.50;91.90;;;;;;5055280;28;20032;-73
2023/04/22 06:02:25;;;;;;;1999.90;999.90;;;9.70;91.30;;;;;;5069311;28;20558;-73
2023/04/22 06:04:51;;;;;;;1999.90;999.90;;;9.80;91.00;;;;;;5039012;28;20360;-72
2023/04/22 06:07:16;;;;;;;1999.90;999.90;;;10.00;90.60;;;;;;5071501;28;20036;-72
2023/04/22 06:09:42;;;;;;;1999.90;999.90;;;10.20;90.30;;;;;;5057702;28;20040;-76
2023/04/22 06:12:08;;;;;;;1999.90;999.90;;;10.10;90.20;;;;;;5060081;28;20024;-74
2023/04/22 06:14:33;;;;;;;1999.90;999.90;;;10.20;90.10;;;;;;5071250;28;20028;-74
2023/04/22 06:16:59;;;;;;;1999.90;999.90;;;10.30;90.20;;;;;;5075953;28;20029;-74
2023/04/22 06:19:25;;;;;;;1999.90;999.90;;;10.30;90.00;;;;;;5062671;28;20055;-74
2023/04/22 06:21:51;;;;;;;1999.90;999.90;;;10.30;90.00;;;;;;5034166;28;20063;-75
2023/04/22 06:24:17;;;;;;;1999.90;999.90;;;10.30;90.40;;;;;;5056469;28;20557;-74
2023/04/22 06:26:42;;;;;;;1999.90;999.90;;;10.40;90.90;;;;;;5051501;28;20040;-74
2023/04/22 06:29:08;;;;;;;1999.90;999.90;;;10.50;90.80;;;;;;5062745;28;20033;-73
2023/04/22 06:31:34;;;;;;;1999.90;999.90;;;10.60;90.50;;;;;;5061880;28;20039;-75
2023/04/22 06:34:00;;;;;;;1999.90;999.90;;;10.60;90.00;;;;;;5069584;28;20479;-74
2023/04/22 06:36:26;;;;;;;1999.90;999.90;;;10.60;89.40;;;;;;5055104;28;20031;-75
2023/04/22 06:38:52;;;;;;;1999.90;999.90;;;10.70;89.00;;;;;;5061800;28;20047;-74
2023/04/22 06:41:18;;;;;;;1999.90;999.90;;;10.60;89.10;;;;;;5065896;28;20554;-74
2023/04/22 06:43:43;;;;;;;1999.90;999.90;;;10.60;88.90;;;;;;5070738;28;20131;-76
2023/04/22 06:46:09;;;;;;;1999.90;999.90;;;10.60;88.70;;;;;;5059586;28;20059;-81
2023/04/22 06:48:35;;;;;;;1999.90;999.90;;;10.60;87.30;;;;;;5045925;28;20050;-80
2023/04/22 06:51:01;;;;;;;1999.90;999.90;;;10.80;87.60;;;;;;5065956;28;20483;-80
2023/04/22 06:53:26;;;;;;;1999.90;999.90;;;11.30;88.60;;;;;;5059659;28;20032;-80
2023/04/22 06:55:53;;;;;;;1999.90;999.90;;;11.30;89.90;;;;;;5043862;28;20093;-80
2023/04/22 06:58:20;;;;;;;1999.90;999.90;;;11.70;86.20;;;;;;5050671;28;20804;-80
2023/04/22 07:00:47;;;;;;;1999.90;999.90;;;12.00;86.20;;;;;;5048846;28;20040;-80
2023/04/22 07:03:12;;;;;;;1999.90;999.90;;;12.30;79.30;;;;;;5039747;28;20031;-80
2023/04/22 07:05:38;;;;;;;1999.90;999.90;;;12.50;75.20;;;;;;5069389;28;20024;-79
2023/04/22 07:08:04;;;;;;;1999.90;999.90;;;12.70;74.40;;;;;;5035375;28;20036;-79
2023/04/22 07:10:29;;;;;;;1999.90;999.90;;;12.90;74.50;;;;;;5066675;28;20037;-80
2023/04/22 07:12:55;;;;;;;1999.90;999.90;;;13.00;75.60;;;;;;5069128;28;20068;-79
2023/04/22 07:15:21;;;;;;;1999.90;999.90;;;12.90;74.40;;;;;;5051088;28;20074;-81
2023/04/22 07:17:46;;;;;;;1999.90;999.90;;;13.10;72.40;;;;;;5047610;28;20119;-79
2023/04/22 07:20:12;;;;;;;1999.90;999.90;;;13.40;72.80;;;;;;5041079;28;20523;-79
2023/04/22 07:22:37;;;;;;;1999.90;999.90;;;13.70;73.90;;;;;;5073512;28;20040;-77
2023/04/22 07:25:06;;;;;;;1999.90;999.90;;;13.50;70.20;;;;;;5065549;28;20110;-80
2023/04/22 07:27:31;;;;;;;1999.90;999.90;;;13.90;75.10;;;;;;5063995;28;20036;-75
2023/04/22 07:29:57;;;;;;;1999.90;999.90;;;14.30;76.40;;;;;;5067038;28;20723;-78
2023/04/22 07:32:22;;;;;;;1999.90;999.90;;;14.10;76.60;;;;;;5043620;28;20025;-77
2023/04/22 07:34:48;;;;;;;1999.90;999.90;;;14.00;78.20;;;;;;5062477;28;20028;-77
2023/04/22 07:37:14;;;;;;;1999.90;999.90;;;14.20;76.80;;;;;;5052483;28;20368;-78
2023/04/22 07:39:39;;;;;;;1999.90;999.90;;;14.20;76.20;;;;;;5050187;28;20529;-76
2023/04/22 07:42:06;;;;;;;1999.90;999.90;;;14.30;75.20;;;;;;5062447;28;20048;-78
2023/04/22 07:44:31;;;;;;;1999.90;999.90;;;14.00;75.80;;;;;;5044953;28;20028;-77
2023/04/22 07:46:58;;;;;;;1999.90;999.90;;;14.20;74.70;;;;;;5063753;28;20036;-77
2023/04/22 07:49:24;;;;;;;1999.90;999.90;;;14.10;74.40;;;;;;5070878;28;20051;-79
2023/04/22 07:51:50;;;;;;;1999.90;999.90;;;14.30;74.20;;;;;;5046717;28;20494;-75
2023/04/22 07:54:15;;;;;;;1999.90;999.90;;;14.30;73.10;;;;;;5065831;28;20037;-75
2023/04/22 07:56:41;;;;;;;1999.90;999.90;;;14.10;73.10;;;;;;5032209;28;20043;-75
2023/04/22 07:59:07;;;;;;;1999.90;999.90;;;14.40;75.20;;;;;;5063619;28;20111;-76
2023/04/22 08:01:32;;;;;;;1999.90;999.90;;;14.70;72.30;;;;;;5065803;28;20119;-75
2023/04/22 08:03:58;;;;;;;1999.90;999.90;;;14.60;73.80;;;;;;5048630;28;20082;-74
2023/04/22 08:06:24;;;;;;;1999.90;999.90;;;14.70;71.20;;;;;;5067180;28;20363;-75
2023/04/22 08:08:49;;;;;;;1999.90;999.90;;;15.00;70.40;;;;;;5071323;28;20090;-76
2023/04/22 08:11:15;;;;;;;1999.90;999.90;;;15.00;68.60;;;;;;5074710;28;20036;-74
2023/04/22 08:13:41;;;;;;;1999.90;999.90;;;15.00;69.50;;;;;;5072880;28;20398;-74
2023/04/22 08:16:07;;;;;;;1999.90;999.90;;;15.30;70.00;;;;;;5060957;28;20440;-74
2023/04/22 08:18:32;;;;;;;1999.90;999.90;;;15.30;72.00;;;;;;5081961;28;20032;-74
2023/04/22 08:20:58;;;;;;;1999.90;999.90;;;15.70;68.80;;;;;;5072453;28;20116;-74
2023/04/22 08:23:24;;;;;;;1999.90;999.90;;;15.90;66.00;;;;;;5073795;28;20506;-74
2023/04/22 08:25:50;;;;;;;1999.90;999.90;;;16.00;65.80;;;;;;5063094;28;20028;-74
2023/04/22 08:28:16;;;;;;;1999.90;999.90;;;16.10;66.10;;;;;;5075481;28;20499;-74
2023/04/22 08:30:42;;;;;;;1999.90;999.90;;;16.00;66.00;;;;;;5073158;28;20094;-74
2023/04/22 08:33:08;;;;;;;1999.90;999.90;;;16.00;64.90;;;;;;5069693;28;20458;-74
2023/04/22 08:35:34;;;;;;;1999.90;999.90;;;16.00;65.20;;;;;;5075349;28;20032;-74
2023/04/22 08:38:00;;;;;;;1999.90;999.90;;;15.90;67.20;;;;;;5064450;28;20059;-74
2023/04/22 08:40:27;;;;;;;1999.90;999.90;;;15.80;64.10;;;;;;5061521;28;20512;-73
2023/04/22 08:42:54;;;;;;;1999.90;999.90;;;16.10;67.50;;;;;;5073874;28;20090;-74
2023/04/22 08:45:21;;;;;;;1999.90;999.90;;;16.20;66.10;;;;;;5071247;28;20115;-74
2023/04/22 08:47:48;;;;;;;1999.90;999.90;;;16.10;65.50;;;;;;5070867;28;20486;-74
2023/04/22 08:50:14;;;;;;;1999.90;999.90;;;16.10;66.40;;;;;;5078913;28;20710;-76
2023/04/22 08:52:42;;;;;;;1999.90;999.90;;;16.20;67.00;;;;;;5077685;28;20020;-77
2023/04/22 08:55:08;;;;;;;1999.90;999.90;;;16.20;65.00;;;;;;5057411;28;20034;-77
2023/04/22 08:57:36;;;;;;;1999.90;999.90;;;16.40;65.40;;;;;;5054575;28;20029;-78
2023/04/22 09:00:04;;;;;;;1999.90;999.90;;;16.50;63.90;;;;;;5056785;28;20040;-75
2023/04/22 09:02:32;;;;;;;1999.90;999.90;;;17.10;63.60;;;;;;5073973;28;20498;-75
2023/04/22 09:05:00;;;;;;;1999.90;999.90;;;17.60;63.10;;;;;;5070592;28;20035;-77
2023/04/22 09:07:30;;;;;;;1999.90;999.90;;;17.50;60.20;;;;;;5064407;28;20036;-83
2023/04/22 09:09:57;;;;;;;1999.90;999.90;;;17.40;60.00;;;;;;5056808;28;20445;-82
2023/04/22 09:12:24;;;;;;;1999.90;999.90;;;17.60;59.40;;;;;;5068452;28;20029;-76
2023/04/22 09:14:54;;;;;;;1999.90;999.90;;;17.90;60.60;;;;;;5067667;28;20024;-77
2023/04/22 09:17:46;;;;;;;;;;;17.90;60.80;;;;;;5055702;28;20035;-74
2023/04/22 09:20:14;;;;;;;1999.90;999.90;;;17.60;59.50;;;;;;5055681;28;20271;-76
2023/04/22 09:22:45;;;;;;;1999.90;999.90;;;17.80;60.00;;;;;;5072229;28;20076;-77
2023/04/22 09:25:21;;;;;;;1999.90;999.90;;;18.40;61.20;;;;;;5072720;28;20008;-75
2023/04/22 09:27:54;;;;;;;1999.90;999.90;;;18.50;58.10;;;;;;5059191;28;20024;-76
2023/04/22 09:30:32;;;;;;;1999.90;999.90;;;18.40;58.10;;;;;;5075474;28;20032;-78
2023/04/22 09:33:04;;;;;;;1999.90;999.90;;;18.70;59.80;;;;;;5069185;28;20056;-76
2023/04/22 09:35:38;;;;;;;1999.90;999.90;;;18.50;56.70;;;;;;5064474;28;20117;-76
2023/04/22 09:38:07;;;;;;;1999.90;999.90;;;18.60;57.00;;;;;;5076340;28;20016;-76
2023/04/22 09:40:33;;;;;;;1999.90;999.90;;;18.70;55.20;;;;;;5066517;28;20596;-77
2023/04/22 09:43:05;;;;;;;1999.90;999.90;;;18.80;55.70;;;;;;5072109;28;20495;-77
2023/04/22 09:45:35;;;;;;;1999.90;999.90;;;18.80;53.00;;;;;;5068460;28;20035;-76
2023/04/22 09:48:16;;;;;;;1999.90;999.90;;;19.20;55.40;;;;;;5075283;28;20039;-77
2023/04/22 09:50:44;;;;;;;1999.90;999.90;;;18.90;52.40;;;;;;5057863;28;20512;-76
2023/04/22 09:53:13;;;;;;;1999.90;999.90;;;19.30;49.90;;;;;;5052176;28;20099;-78
2023/04/22 09:55:42;;;;;;;1999.90;999.90;;;19.70;52.70;;;;;;5067098;28;20070;-77
2023/04/22 09:58:18;;;;;;;1999.90;999.90;;;20.10;50.30;;;;;;5074150;28;20051;-77
2023/04/22 10:00:56;;;;;;;1999.90;999.90;;;20.30;48.20;;;;;;5046771;28;20093;-78
2023/04/22 10:03:22;;;;;;;1999.90;999.90;;;19.90;45.00;;;;;;5074598;28;20032;-75
2023/04/22 10:05:48;;;;;;;1999.90;999.90;;;20.40;48.20;;;;;;5054232;28;20073;-78
2023/04/22 10:08:15;;;;;;;1999.90;999.90;;;20.20;47.60;;;;;;5050706;28;20214;-78
2023/04/22 10:10:41;;;;;;;1999.90;999.90;;;20.40;49.00;;;;;;5056600;28;20028;-78
2023/04/22 10:13:07;;;;;;;1999.90;999.90;;;20.20;48.10;;;;;;5074253;28;20916;-77
2023/04/22 10:15:37;;;;;;;1999.90;999.90;;;20.10;48.50;;;;;;5067593;28;20107;-77
2023/04/22 10:18:06;;;;;;;1133.43;628.10;;;20.30;47.70;;;;;;5071304;28;20086;-78
2023/04/22 10:20:36;;;;;;;1999.90;999.90;;;20.40;47.40;;;;;;5065463;28;20572;-77
2023/04/22 10:23:04;;;;;;;1999.90;999.90;;;20.60;48.70;;;;;;5069542;28;20044;-78
2023/04/22 10:25:30;;;;;;;1999.90;999.90;;;20.40;46.00;;;;;;5056847;28;20036;-77
2023/04/22 10:28:04;;;;;;;1999.90;999.90;;;20.40;47.80;;;;;;5074008;28;20086;-80
2023/04/22 10:30:32;;;;;;;1999.90;999.90;;;20.90;45.00;;;;;;5073962;28;20025;-77
2023/04/22 10:33:30;;;;;;;1999.90;999.90;;;20.90;45.70;;;;;;5075366;28;20036;-76
2023/04/22 10:36:13;;;;;;;1999.90;999.90;;;20.90;45.70;;;;;;5062186;28;20037;-77
2023/04/22 10:38:39;;;;;;;1999.90;999.90;;;21.60;45.00;;;;;;5065440;28;20040;-79
2023/04/22 10:41:05;;;;;;;1197.45;689.30;;;21.90;48.70;;;;;;5070867;28;20033;-77
2023/04/22 10:44:04;;;;;;;453.33;434.98;;;22.40;43.30;;;;;;5068560;28;20037;-77
2023/04/22 10:46:38;;;;;;;331.45;319.38;;;22.60;40.50;;;;;;5043042;28;20052;-77
2023/04/22 10:49:21;;;;;;;339.00;326.45;;;22.60;37.20;;;;;;5069176;28;20134;-77
2023/04/22 10:51:46;;;;;;;346.88;334.05;;;22.60;42.00;;;;;;5064028;28;20608;-78
2023/04/22 10:57:21;;;;;;;402.33;386.92;;;23.60;39.00;;;;;;5065455;28;20028;-77
2023/04/22 10:59:56;;;;;;;327.60;315.80;;;24.20;40.20;;;;;;5056217;28;20041;-77
2023/04/22 11:02:22;;;;;;;334.55;322.40;;;24.20;37.70;;;;;;5068318;28;20033;-79
2023/04/22 11:04:52;;;;;;;361.15;347.73;;;24.50;38.00;;;;;;5074093;28;20038;-79
2023/04/22 11:07:26;;;;;;;336.05;323.48;;;23.80;35.80;;;;;;5070656;28;20123;-79
2023/04/22 11:10:00;;;;;;;371.98;357.85;;;24.90;35.50;;;;;;5075834;28;20099;-78
2023/04/22 11:12:36;;;;;;;341.00;328.42;;;24.30;36.10;;;;;;5077906;28;20024;-79
2023/04/22 11:15:09;;;;;;;391.33;376.30;;;24.10;36.10;;;;;;5056625;28;20024;-78
2023/04/22 11:17:36;;;;;;;367.85;354.08;;;24.70;39.10;;;;;;5074039;28;20031;-78
2023/04/22 11:20:04;;;;;;;415.13;399.13;;;25.80;34.40;;;;;;5038459;28;20052;-78
2023/04/22 11:22:37;;;;;;;391.10;376.08;;;26.10;39.00;;;;;;5072496;28;20049;-77
2023/04/22 11:25:04;;;;;;;368.48;354.58;;;25.70;38.00;;;;;;5053877;28;20020;-78
2023/04/22 11:27:30;;;;;;;402.17;386.75;;;24.80;35.80;;;;;;5046277;28;20119;-78
2023/04/22 11:30:16;;;;;;;404.55;389.00;;;24.90;36.60;;;;;;5068112;28;20124;-79
2023/04/22 11:32:53;;;;;;;433.05;415.98;;;24.70;33.70;;;;;;5062608;28;20066;-78
2023/04/22 11:35:25;;;;;;;434.92;417.88;;;26.30;34.00;;;;;;5055248;28;20025;-78
2023/04/22 11:38:05;;;;;;;424.17;407.23;;;27.10;30.30;;;;;;5070107;28;20028;-78
2023/04/22 11:40:44;;;;;;;384.45;369.95;;;26.80;30.90;;;;;;5059260;28;20036;-78
2023/04/22 11:43:10;;;;;;;397.10;381.97;;;26.20;31.40;;;;;;5057177;28;20036;-78
2023/04/22 11:45:37;;;;;;;424.83;408.45;;;25.50;35.80;;;;;;5080292;28;20287;-78
2023/04/22 11:48:05;;;;;;;405.77;390.45;;;26.10;33.70;;;;;;5052062;28;20064;-79
2023/04/22 11:50:34;;;;;;;412.55;396.70;;;26.40;29.90;;;;;;5076066;28;20029;-78
2023/04/22 11:53:01;;;;;;;391.67;376.75;;;26.40;33.00;;;;;;5075904;28;20060;-78
2023/04/22 11:55:30;;;;;;;407.42;391.60;;;25.80;33.80;;;;;;5057014;28;20032;-77
2023/04/22 11:58:00;;;;;;;380.52;365.80;;;26.70;32.60;;;;;;5053738;28;20674;-78
2023/04/22 12:00:31;;;;;;;416.67;400.42;;;26.00;33.70;;;;;;5059300;28;20021;-78
2023/04/22 12:03:02;;;;;;;418.33;402.05;;;25.90;34.00;;;;;;5071206;28;20090;-78
2023/04/22 12:05:39;;;;;;;463.90;444.92;;;25.00;30.50;;;;;;5071261;28;20029;-77
2023/04/22 12:08:10;;;;;;;457.40;439.02;;;25.00;31.30;;;;;;5074888;28;20574;-79
2023/04/22 12:10:40;;;;;;;436.23;419.05;;;25.20;31.70;;;;;;5067697;28;20040;-79